Terminal Aerodrome Forecast
Issued by NWS Charleston, WV

Current Version | Previous Version | Text Only | Print | Product List | Glossary Off
Versions: 1 2 3 4 5 6 7 8 9 10 11 12 13 14 15 16 17 18 19 20 21 22 23 24 25 26 27 28 29 30

000
FTUS41 KRLX 230849 AAB
TAFBKW
TAF AMD
KBKW 230849Z 2309/2406 30004KT P6SM FEW008 BKN020 OVC070
     FM231400 33006KT P6SM BKN040
     FM232000 32006KT P6SM SCT070
     FM240500 00000KT P6SM FEW100=

USA.gov is the U.S. government's official web portal to all federal, state and local government web resources and services.